Wahiawa, HI (96786)

4:26 AM HST on September 21, 2014 (GMT -1000)
Wahiawa Heights | Change Station
CLOSE
Current Station
Personal Weather Station
Location: Wahiawā, HI
Elevation: 1132 ft
Nearby Weather Stations

Elev 1132 ft 21.51 °N, 158.00 °W | Updated 4 minutes ago

Partly Cloudy
Partly Cloudy
69.4 °F
Feels Like 69.4 °F
N
0.0
Wind Variable Wind from NW

Today
High -- | Low -- °F
--% Chance of Precip.
Yesterday
High -- | Low -- °F
Precip. -- in
6:20 AM 6:29 PM
Waning Crescent, 6% visible
Pressure 29.93 in
Visibility 10.0 miles
Clouds Few 200 ft
Dew Point 69 °F
Humidity 99%
Rainfall 0.01 in
Snow Depth Not available.
UV 0 out of 12
Pollen Not available.
Air Quality Not available.
Flu Activity Not available.
SPECI PHJR 211402Z AUTO 00000KT 10SM FEW002 23/22 A2993 RMK AO2 TSNO $

More Conditions Fewer Conditions

Pressure 29.93 in
Visibility 10.0 miles
Clouds Few 200 ft
Dew Point 69 °F
Humidity 99%
Rainfall 0.01 in
Snow Depth Not available.
UV 0 out of 12
Pollen Not available.
Air Quality Not available.
Flu Activity Not available.
SPECI PHJR 211402Z AUTO 00000KT 10SM FEW002 23/22 A2993 RMK AO2 TSNO $

More Conditions Fewer Conditions

10-Day Weather Forecast

Almanac

Astronomy

Sep. 21, 2014 Rise Set
Actual Time 6:20 AM HST 6:29 PM HST
Civil Twilight 5:58 AM HST 6:51 PM HST
Nautical Twilight 5:32 AM HST 7:17 PM HST
Astronomical Twilight 5:06 AM HST 7:43 PM HST
Moon 4:17 AM HST 5:01 PM HST
Length of Visible Light 12h 52m
Length of Day
12h 08m
Tomorrow will be 1m 14s shorter.
Waning Crescent, 6% of the Moon is Illuminated
Today
Waning Crescent
Sep 24
New
Oct 1
First Quarter
Oct 8
Full
Oct 15
Last Quarter

Today's Extremes

State Highs State Lows

Community

WunderPhotos

Upload Photos

1,755,159 photos uploaded!

Nearby

Snow Depth

Station Depth Elevation
No new snow has been reported.

Earthquake Activity

City Distance Mag. Time & Date
No recent earthquake activity has been reported nearby.
Minimum magnitude displayed is 2.5.

Coastal Water Temperatures

Place Temperature
No Stations Reporting

Nearby Weather Stations